Time;durP1;ratioP1;P1;durP2;ratioP2;P2;SDS_P1;SDS_P2;PMS_P1;PMS_P2;Temp;Humidity;BMP_temperature;BMP_pressure;BME280_temperature;BME280_humidity;BME280_pressure;Samples;Min_cycle;Max_cycle;Signal;HPM_P1;HPM_P2
2022/12/22 03:26:48;;;;;;;33.17;25.88;;;9.10;99.90;;;;;;5063553;28;20055;-60
2022/12/22 03:29:13;;;;;;;38.65;26.92;;;9.10;99.90;;;;;;5074494;28;20056;-61
2022/12/22 03:31:39;;;;;;;38.72;28.23;;;9.20;99.90;;;;;;5073975;28;20044;-61
2022/12/22 03:34:05;;;;;;;36.78;26.45;;;9.10;99.90;;;;;;5078288;28;20354;-61
2022/12/22 03:36:30;;;;;;;40.03;28.10;;;9.10;99.90;;;;;;5039625;28;20044;-61
2022/12/22 03:38:56;;;;;;;33.75;26.45;;;9.20;99.90;;;;;;5074685;28;20087;-61
2022/12/22 03:46:50;;;;;;;35.35;26.80;;;9.10;99.90;;;;;;5079596;28;20075;-65
2022/12/22 03:49:15;;;;;;;32.80;25.98;;;9.20;99.90;;;;;;5056456;28;20072;-61
2022/12/22 03:51:46;;;;;;;29.67;26.40;;;9.20;99.90;;;;;;5074996;28;20343;-63
2022/12/22 03:54:15;;;;;;;29.70;25.27;;;9.10;99.90;;;;;;5062839;28;20127;-62
2022/12/22 03:56:41;;;;;;;33.15;26.25;;;9.20;99.90;;;;;;5075450;28;20059;-62
2022/12/22 03:59:06;;;;;;;34.95;27.33;;;9.20;99.90;;;;;;5056663;28;20044;-61
2022/12/22 04:01:38;;;;;;;26.80;23.77;;;9.30;99.90;;;;;;5077198;28;20046;-62
2022/12/22 04:04:03;;;;;;;31.25;25.10;;;9.20;99.90;;;;;;5062792;28;20417;-63
2022/12/22 04:06:29;;;;;;;33.20;26.77;;;9.20;99.90;;;;;;5074375;28;20107;-60
2022/12/22 04:08:55;;;;;;;35.17;27.73;;;9.20;99.90;;;;;;5056356;28;20127;-59
2022/12/22 04:14:04;;;;;;;39.65;27.75;;;9.30;99.90;;;;;;5065175;28;20368;-59
2022/12/22 04:16:30;;;;;;;32.72;26.27;;;9.30;99.90;;;;;;5078645;28;20446;-59
2022/12/22 04:18:56;;;;;;;29.60;25.65;;;9.30;99.90;;;;;;5073397;28;20032;-60
2022/12/22 04:21:21;;;;;;;35.15;26.27;;;9.20;99.90;;;;;;5072579;28;20037;-64
2022/12/22 04:23:50;;;;;;;37.90;27.13;;;9.30;99.90;;;;;;5072877;28;20131;-60
2022/12/22 04:26:20;;;;;;;37.85;29.13;;;9.30;99.90;;;;;;5073189;28;20044;-59
2022/12/22 04:28:46;;;;;;;122.93;32.92;;;9.30;99.90;;;;;;5072184;28;20062;-60
2022/12/22 04:31:11;;;;;;;34.72;25.35;;;9.30;99.90;;;;;;5086341;28;20060;-61
2022/12/22 04:33:37;;;;;;;46.70;29.33;;;9.20;99.90;;;;;;5072562;28;20044;-64
2022/12/22 04:36:03;;;;;;;35.15;27.08;;;9.20;99.90;;;;;;5073157;28;20055;-61
2022/12/22 04:38:29;;;;;;;33.38;26.83;;;9.20;99.90;;;;;;5073281;28;20070;-63
2022/12/22 04:40:54;;;;;;;35.53;27.23;;;9.30;99.90;;;;;;5073008;28;20091;-62
2022/12/22 04:43:21;;;;;;;30.40;25.35;;;9.20;99.90;;;;;;5072912;28;20032;-63
2022/12/22 04:45:52;;;;;;;32.08;26.05;;;9.20;99.90;;;;;;5076483;28;20044;-61
2022/12/22 04:48:17;;;;;;;33.33;26.42;;;9.30;99.90;;;;;;5073192;28;20064;-61
2022/12/22 04:50:43;;;;;;;39.17;27.58;;;9.40;99.90;;;;;;5055276;28;20129;-63
2022/12/22 04:53:08;;;;;;;36.75;26.73;;;9.20;99.90;;;;;;5072701;28;20564;-60
2022/12/22 04:55:34;;;;;;;37.70;26.38;;;9.20;99.90;;;;;;5091670;28;20063;-62
2022/12/22 04:58:00;;;;;;;40.50;27.30;;;9.20;99.90;;;;;;5079694;28;20032;-62
2022/12/22 05:00:25;;;;;;;39.40;28.20;;;9.30;99.90;;;;;;5059151;28;20093;-63
2022/12/22 05:02:52;;;;;;;39.58;28.50;;;9.20;99.90;;;;;;5072416;28;20033;-61
2022/12/22 05:05:17;;;;;;;49.50;30.70;;;9.10;99.90;;;;;;5072229;28;20032;-60
2022/12/22 05:07:43;;;;;;;41.63;29.88;;;9.10;99.90;;;;;;5072850;28;20043;-62
2022/12/22 05:10:09;;;;;;;43.65;28.75;;;9.10;99.90;;;;;;5072771;28;20189;-61
2022/12/22 05:15:26;;;;;;;42.63;28.92;;;9.10;99.90;;;;;;5069579;28;20052;-61
2022/12/22 05:17:52;;;;;;;49.72;31.75;;;9.10;99.90;;;;;;5085605;28;20122;-63
2022/12/22 05:20:18;;;;;;;55.85;32.58;;;9.10;99.90;;;;;;5071221;28;20041;-61
2022/12/22 05:22:44;;;;;;;57.38;32.65;;;9.10;99.90;;;;;;5071779;28;20048;-62
2022/12/22 05:25:10;;;;;;;65.95;32.92;;;9.00;99.90;;;;;;5072099;28;20036;-60
2022/12/22 05:27:36;;;;;;;74.95;33.60;;;9.00;99.90;;;;;;5071056;28;20144;-62
2022/12/22 05:30:02;;;;;;;65.18;32.65;;;9.00;99.90;;;;;;5077234;28;20473;-64
2022/12/22 05:32:31;;;;;;;69.20;34.08;;;9.10;99.90;;;;;;5083392;28;20461;-61
2022/12/22 05:34:56;;;;;;;74.00;35.42;;;9.00;99.90;;;;;;5073558;28;20043;-61
2022/12/22 05:37:22;;;;;;;64.13;32.92;;;9.10;99.90;;;;;;5088926;28;20040;-63
2022/12/22 05:39:47;;;;;;;76.10;35.80;;;9.00;99.90;;;;;;5090664;28;20050;-62
2022/12/22 05:42:37;;;;;;;81.93;34.00;;;9.10;99.90;;;;;;5090353;28;20036;-62
2022/12/22 05:45:16;;;;;;;104.55;37.20;;;9.00;99.90;;;;;;5092815;28;20440;-62
2022/12/22 05:47:47;;;;;;;72.50;32.90;;;9.00;99.90;;;;;;5095254;28;20471;-61
2022/12/22 05:50:15;;;;;;;85.63;33.58;;;9.00;99.90;;;;;;5094580;28;20096;-63
2022/12/22 05:52:41;;;;;;;98.53;37.67;;;8.90;99.90;;;;;;5087672;28;20044;-62
2022/12/22 05:55:07;;;;;;;139.75;41.83;;;8.90;99.90;;;;;;5082198;28;20111;-61
2022/12/22 05:57:35;;;;;;;127.88;40.45;;;8.90;99.90;;;;;;5090638;28;20040;-61
2022/12/22 06:00:01;;;;;;;141.60;39.17;;;8.80;99.90;;;;;;5081576;28;20041;-60
2022/12/22 06:02:26;;;;;;;241.88;42.88;;;8.80;99.90;;;;;;5090937;28;20369;-60
2022/12/22 06:04:52;;;;;;;371.00;48.75;;;8.80;99.90;;;;;;5080296;28;20360;-62
2022/12/22 06:07:18;;;;;;;300.27;48.15;;;8.70;99.90;;;;;;5090841;28;20059;-63
2022/12/22 06:09:43;;;;;;;251.60;43.63;;;8.70;99.90;;;;;;5080369;28;20476;-60
2022/12/22 06:12:09;;;;;;;237.80;43.83;;;8.60;99.90;;;;;;5088078;28;20040;-61
2022/12/22 06:14:35;;;;;;;145.07;43.05;;;8.50;99.90;;;;;;5080328;28;20052;-59
2022/12/22 06:17:01;;;;;;;137.00;41.50;;;8.40;99.90;;;;;;5083500;28;20049;-60
2022/12/22 06:19:26;;;;;;;200.88;41.33;;;8.40;99.90;;;;;;5074700;28;20119;-61
2022/12/22 06:21:52;;;;;;;127.43;33.65;;;8.30;99.90;;;;;;5083228;28;20483;-62
2022/12/22 06:24:17;;;;;;;171.05;37.47;;;8.30;99.90;;;;;;5090817;28;20059;-63
2022/12/22 06:26:43;;;;;;;233.98;41.58;;;8.20;99.90;;;;;;5073761;28;20043;-62
2022/12/22 06:29:09;;;;;;;198.13;42.33;;;8.30;99.90;;;;;;5091789;28;20070;-62
2022/12/22 06:31:34;;;;;;;279.95;44.60;;;8.20;99.90;;;;;;5090965;28;20328;-61
2022/12/22 06:34:00;;;;;;;201.02;40.92;;;8.20;99.90;;;;;;5090330;28;20122;-61
2022/12/22 06:36:25;;;;;;;146.50;37.33;;;8.20;99.90;;;;;;5093699;28;20036;-61
2022/12/22 06:38:51;;;;;;;154.77;36.85;;;8.10;99.90;;;;;;5091659;28;20456;-61
2022/12/22 06:44:08;;;;;;;253.73;43.05;;;8.20;99.90;;;;;;5073488;28;20040;-62
2022/12/22 06:46:34;;;;;;;148.43;38.15;;;8.20;99.90;;;;;;5071841;28;20047;-61
2022/12/22 06:48:59;;;;;;;147.60;38.67;;;8.10;99.90;;;;;;5086842;28;20035;-61
2022/12/22 06:51:25;;;;;;;204.73;39.40;;;8.10;99.90;;;;;;5073566;28;20342;-61
2022/12/22 06:53:50;;;;;;;186.93;37.15;;;8.00;99.90;;;;;;5092448;28;20096;-59
2022/12/22 06:56:16;;;;;;;201.40;36.55;;;8.10;99.90;;;;;;5075251;28;20118;-60
2022/12/22 06:58:41;;;;;;;240.48;37.40;;;8.00;99.90;;;;;;5086587;28;20075;-61
2022/12/22 07:01:07;;;;;;;258.83;39.67;;;8.00;99.90;;;;;;5083456;28;20072;-59
2022/12/22 07:03:32;;;;;;;254.27;39.47;;;8.00;99.90;;;;;;5077491;28;20036;-59
2022/12/22 07:05:58;;;;;;;271.02;38.78;;;8.00;99.90;;;;;;5077916;28;20036;-61
2022/12/22 07:08:27;;;;;;;129.95;30.92;;;7.90;99.90;;;;;;5078503;28;20036;-60
2022/12/22 07:10:59;;;;;;;167.82;33.85;;;8.00;99.90;;;;;;5061455;28;20036;-59
2022/12/22 07:13:31;;;;;;;297.35;40.38;;;7.80;99.90;;;;;;5079051;28;20044;-61
2022/12/22 07:15:57;;;;;;;125.63;32.55;;;7.80;99.90;;;;;;5092092;28;20047;-63
2022/12/22 07:18:23;;;;;;;177.10;32.08;;;7.80;99.90;;;;;;5090974;28;20031;-60
2022/12/22 07:20:49;;;;;;;256.80;36.65;;;7.70;99.90;;;;;;5089435;28;20115;-60
2022/12/22 07:23:14;;;;;;;161.77;28.42;;;7.70;99.90;;;;;;5083186;28;20036;-61
2022/12/22 07:25:40;;;;;;;169.95;25.70;;;7.80;99.90;;;;;;5076800;28;20044;-61
2022/12/22 07:28:06;;;;;;;220.60;30.55;;;7.70;99.90;;;;;;5074267;28;20048;-62
2022/12/22 07:30:34;;;;;;;199.20;27.63;;;7.60;99.90;;;;;;5039969;28;20119;-63
2022/12/22 07:33:00;;;;;;;249.88;26.75;;;7.60;99.90;;;;;;5074272;28;20044;-61
2022/12/22 07:35:25;;;;;;;204.15;27.08;;;7.60;99.90;;;;;;5073993;28;20040;-61
2022/12/22 07:37:51;;;;;;;144.85;24.63;;;7.50;99.90;;;;;;5074341;28;20068;-63
2022/12/22 07:40:16;;;;;;;134.23;24.48;;;7.60;99.90;;;;;;5079223;28;20040;-60
2022/12/22 07:42:44;;;;;;;186.23;28.42;;;7.50;99.90;;;;;;5075311;28;20040;-62
2022/12/22 07:45:18;;;;;;;247.95;29.15;;;7.50;99.90;;;;;;5069674;28;20071;-61
2022/12/22 07:47:45;;;;;;;171.88;26.95;;;7.50;99.90;;;;;;5049590;28;20104;-61
2022/12/22 07:50:24;;;;;;;193.75;27.45;;;7.60;99.90;;;;;;5074522;28;20382;-61
2022/12/22 07:52:51;;;;;;;288.77;29.48;;;7.50;99.90;;;;;;5049719;28;20033;-62
2022/12/22 07:55:17;;;;;;;227.95;27.40;;;7.40;99.90;;;;;;5079047;28;20490;-62
2022/12/22 07:57:43;;;;;;;178.73;26.05;;;7.40;99.90;;;;;;5075466;28;20028;-63
2022/12/22 08:00:09;;;;;;;243.02;29.00;;;7.40;99.90;;;;;;5074663;28;20141;-62
2022/12/22 08:02:34;;;;;;;225.90;26.83;;;7.30;99.90;;;;;;5074759;28;20441;-61
2022/12/22 08:05:00;;;;;;;173.32;25.92;;;7.30;99.90;;;;;;5075595;28;20407;-61
2022/12/22 08:07:25;;;;;;;148.18;24.15;;;7.40;99.90;;;;;;5074942;28;20048;-62
2022/12/22 08:09:51;;;;;;;179.48;25.77;;;7.30;99.90;;;;;;5060308;28;20076;-63
2022/12/22 08:12:17;;;;;;;209.13;27.58;;;7.30;99.90;;;;;;5073145;28;20127;-62
2022/12/22 08:14:44;;;;;;;153.05;23.45;;;7.20;99.90;;;;;;5075131;28;20112;-61
2022/12/22 08:17:11;;;;;;;112.65;21.42;;;7.20;99.90;;;;;;5073120;28;20063;-61
2022/12/22 08:19:36;;;;;;;126.45;21.50;;;7.20;99.90;;;;;;5073043;28;20063;-62
2022/12/22 08:22:02;;;;;;;111.75;21.45;;;7.30;99.90;;;;;;5073068;28;20671;-61
2022/12/22 08:24:28;;;;;;;141.82;23.75;;;7.30;99.90;;;;;;5086160;28;20032;-61
2022/12/22 08:26:58;;;;;;;144.85;23.70;;;7.30;99.90;;;;;;5072640;28;20136;-62
2022/12/22 08:29:32;;;;;;;135.82;26.05;;;7.20;99.90;;;;;;5073552;28;20029;-63
2022/12/22 08:31:59;;;;;;;117.32;22.90;;;7.30;99.90;;;;;;5072569;28;20060;-61
2022/12/22 08:34:24;;;;;;;172.55;22.95;;;7.30;99.90;;;;;;5091094;28;20036;-60
2022/12/22 08:36:54;;;;;;;125.15;23.08;;;7.20;99.90;;;;;;5093106;28;20051;-61
2022/12/22 08:39:22;;;;;;;146.93;25.85;;;7.20;99.90;;;;;;5079439;28;20372;-61
2022/12/22 08:41:51;;;;;;;103.35;21.77;;;7.10;99.90;;;;;;5079766;28;20438;-61
2022/12/22 08:44:23;;;;;;;136.50;22.67;;;7.20;99.90;;;;;;5091970;28;20043;-61
2022/12/22 08:46:50;;;;;;;110.18;21.58;;;7.20;99.90;;;;;;5078604;28;20131;-61
2022/12/22 08:49:16;;;;;;;110.90;22.85;;;7.30;99.90;;;;;;5055228;28;20417;-61
2022/12/22 08:51:42;;;;;;;105.85;22.90;;;7.30;99.90;;;;;;5072312;28;20129;-62
2022/12/22 08:54:08;;;;;;;95.35;21.75;;;7.30;99.90;;;;;;5080886;28;20440;-60
2022/12/22 08:56:34;;;;;;;61.08;20.20;;;7.20;99.90;;;;;;5092015;28;20101;-61
2022/12/22 08:59:03;;;;;;;67.50;20.77;;;7.30;99.90;;;;;;5093145;28;20097;-62
2022/12/22 09:01:31;;;;;;;71.80;20.25;;;7.30;99.90;;;;;;5082724;28;20426;-61
2022/12/22 09:03:57;;;;;;;83.93;19.45;;;7.30;99.90;;;;;;5062322;28;20028;-60
2022/12/22 09:06:24;;;;;;;63.65;19.08;;;7.20;99.90;;;;;;5090813;28;20089;-61
2022/12/22 09:09:01;;;;;;;61.45;18.95;;;7.20;99.90;;;;;;5077523;28;20046;-61
2022/12/22 09:11:28;;;;;;;57.92;19.30;;;7.30;99.90;;;;;;5072391;28;20047;-60
2022/12/22 09:13:56;;;;;;;50.20;16.85;;;7.30;99.90;;;;;;5081267;28;20430;-60
2022/12/22 09:16:23;;;;;;;60.95;17.55;;;7.40;99.90;;;;;;5085643;28;20471;-62
2022/12/22 09:18:49;;;;;;;67.53;15.45;;;7.30;99.90;;;;;;5082220;28;20045;-60
2022/12/22 09:21:15;;;;;;;45.03;14.20;;;7.30;99.90;;;;;;5070641;28;20071;-61
2022/12/22 09:23:41;;;;;;;41.75;13.68;;;7.20;99.90;;;;;;5058454;28;20035;-61
2022/12/22 09:26:08;;;;;;;58.88;14.30;;;7.20;99.90;;;;;;5054289;28;20044;-61
2022/12/22 09:28:35;;;;;;;67.35;13.40;;;7.30;99.90;;;;;;5072047;28;20053;-61
2022/12/22 09:31:00;;;;;;;81.57;12.25;;;7.30;99.90;;;;;;5071914;28;20444;-61
2022/12/22 09:33:43;;;;;;;70.32;12.45;;;7.20;99.90;;;;;;5071681;28;20182;-61
2022/12/22 09:36:12;;;;;;;71.35;11.38;;;7.10;99.90;;;;;;5072474;28;20452;-61
2022/12/22 09:38:39;;;;;;;106.75;11.40;;;7.10;99.90;;;;;;5077176;28;20098;-61
2022/12/22 09:41:17;;;;;;;95.63;11.18;;;7.10;99.90;;;;;;5078685;28;20035;-58
2022/12/22 09:43:42;;;;;;;62.63;11.05;;;7.00;99.90;;;;;;5074890;28;20143;-61
2022/12/22 09:46:28;;;;;;;59.70;10.02;;;7.00;99.90;;;;;;5072034;28;20036;-59
2022/12/22 09:48:54;;;;;;;39.58;8.77;;;7.10;99.90;;;;;;5077274;28;20043;-60
2022/12/22 09:51:23;;;;;;;25.75;8.48;;;6.90;99.90;;;;;;5077121;28;20044;-61
2022/12/22 09:53:56;;;;;;;36.75;8.40;;;6.90;99.90;;;;;;5079873;28;20498;-61
2022/12/22 09:56:24;;;;;;;30.20;8.85;;;7.00;99.90;;;;;;5085540;28;20040;-61
2022/12/22 09:58:49;;;;;;;25.02;8.23;;;6.90;99.90;;;;;;5079339;28;20111;-62
2022/12/22 10:01:37;;;;;;;46.03;10.02;;;7.00;99.90;;;;;;5077061;28;20131;-60
2022/12/22 10:04:09;;;;;;;40.25;9.50;;;7.00;99.90;;;;;;5077832;28;20040;-60
2022/12/22 10:06:40;;;;;;;28.42;8.57;;;6.90;99.90;;;;;;5079872;28;20024;-61
2022/12/22 10:09:28;;;;;;;37.63;9.68;;;6.90;99.90;;;;;;5085163;28;20076;-61
2022/12/22 10:12:03;;;;;;;35.10;10.60;;;7.00;99.90;;;;;;5072018;28;20072;-61
2022/12/22 10:14:41;;;;;;;28.30;8.82;;;7.00;99.90;;;;;;5076755;28;20051;-60
2022/12/22 10:17:31;;;;;;;29.00;10.40;;;7.10;99.90;;;;;;5081551;28;20048;-61
2022/12/22 10:20:21;;;;;;;28.05;9.93;;;7.10;99.90;;;;;;5070152;28;20049;-61
2022/12/22 10:23:12;;;;;;;22.67;10.13;;;7.20;99.90;;;;;;5077080;28;20043;-60
2022/12/22 10:25:53;;;;;;;28.17;10.30;;;7.20;99.90;;;;;;5058750;28;20051;-60
2022/12/22 10:28:22;;;;;;;37.65;11.32;;;7.20;99.90;;;;;;5062869;28;20063;-62
2022/12/22 10:30:48;;;;;;;30.90;11.45;;;7.20;99.90;;;;;;5090847;28;20036;-60
2022/12/22 10:33:17;;;;;;;26.98;11.07;;;7.30;99.90;;;;;;5082278;28;20059;-62
2022/12/22 10:35:56;;;;;;;20.98;10.73;;;7.30;99.90;;;;;;5075575;28;20044;-60
2022/12/22 10:38:50;;;;;;;24.05;11.25;;;7.30;99.90;;;;;;5079384;28;20461;-60
2022/12/22 10:41:19;;;;;;;32.03;11.48;;;7.40;99.90;;;;;;5075320;28;20037;-61
2022/12/22 10:43:54;;;;;;;20.50;10.73;;;7.40;99.90;;;;;;5074713;28;20111;-60
2022/12/22 10:46:33;;;;;;;21.58;11.45;;;7.50;99.90;;;;;;5075390;28;20036;-59
2022/12/22 10:49:21;;;;;;;23.45;10.65;;;7.50;99.90;;;;;;5075920;28;20036;-59
2022/12/22 10:52:07;;;;;;;19.00;10.68;;;7.50;99.90;;;;;;5079399;28;20411;-60
2022/12/22 10:54:39;;;;;;;20.38;10.55;;;7.70;99.90;;;;;;5072851;28;20045;-59
2022/12/22 10:57:14;;;;;;;21.83;11.98;;;7.70;99.90;;;;;;5074967;28;20041;-60
2022/12/22 10:59:57;;;;;;;21.05;11.05;;;7.80;99.90;;;;;;5075289;28;20112;-60
2022/12/22 11:02:38;;;;;;;24.92;11.75;;;7.70;99.90;;;;;;5063696;28;20411;-59
2022/12/22 11:05:08;;;;;;;21.90;11.90;;;7.80;99.90;;;;;;5075404;28;20028;-60
2022/12/22 11:07:37;;;;;;;23.83;12.65;;;8.00;99.90;;;;;;5079653;28;20033;-60
2022/12/22 11:10:13;;;;;;;25.60;11.80;;;8.00;99.90;;;;;;5074803;28;20055;-61
2022/12/22 11:13:01;;;;;;;18.48;9.88;;;8.00;99.90;;;;;;5082584;28;20090;-60
2022/12/22 11:15:52;;;;;;;20.15;10.52;;;8.10;99.90;;;;;;5082169;28;20052;-60
2022/12/22 11:18:48;;;;;;;18.48;9.77;;;8.10;99.90;;;;;;5079749;28;20040;-61
2022/12/22 11:21:37;;;;;;;19.33;10.32;;;8.30;99.90;;;;;;5077490;28;20063;-58
2022/12/22 11:24:43;;;;;;;20.27;10.25;;;8.30;99.90;;;;;;5074335;28;20083;-60
2022/12/22 11:27:26;;;;;;;19.92;10.10;;;8.30;99.90;;;;;;5066245;28;20125;-60
2022/12/22 11:30:27;;;;;;;18.42;9.32;;;8.30;99.90;;;;;;5084811;28;20417;-62
2022/12/22 11:33:20;;;;;;;17.88;9.63;;;8.40;99.90;;;;;;5069078;28;20032;-62
2022/12/22 11:36:03;;;;;;;18.25;9.40;;;8.40;99.90;;;;;;5081628;28;20036;-58
2022/12/22 11:39:03;;;;;;;21.92;10.70;;;8.50;99.90;;;;;;5083744;28;20447;-60
2022/12/22 11:41:31;;;;;;;22.08;11.82;;;8.50;99.90;;;;;;5091547;28;20060;-62
2022/12/22 11:44:14;;;;;;;20.58;11.02;;;8.60;99.90;;;;;;5088627;28;20035;-60
2022/12/22 11:46:56;;;;;;;22.88;11.32;;;8.60;99.90;;;;;;5073955;28;20068;-60
2022/12/22 11:49:43;;;;;;;23.48;12.23;;;8.60;99.90;;;;;;5073896;28;20472;-62
2022/12/22 11:52:47;;;;;;;20.63;11.23;;;8.60;99.90;;;;;;5076443;28;20044;-62
2022/12/22 11:55:29;;;;;;;21.13;11.77;;;8.70;99.90;;;;;;5069808;28;20074;-60
2022/12/22 11:58:03;;;;;;;22.70;12.27;;;8.60;99.90;;;;;;5073759;28;20054;-61
2022/12/22 12:00:52;;;;;;;24.30;12.45;;;8.70;99.90;;;;;;5078929;28;20040;-61
2022/12/22 12:03:52;;;;;;;24.83;13.13;;;8.70;99.90;;;;;;5059653;28;20418;-60
2022/12/22 12:06:43;;;;;;;22.50;11.88;;;8.80;99.90;;;;;;5078836;28;20047;-61
2022/12/22 12:09:24;;;;;;;21.55;11.90;;;8.80;99.90;;;;;;5073597;28;20041;-59
2022/12/22 12:11:58;;;;;;;22.27;10.80;;;8.80;99.90;;;;;;5056405;28;20113;-61
2022/12/22 12:14:39;;;;;;;22.20;10.55;;;8.90;99.90;;;;;;5077581;28;20094;-61
2022/12/22 12:17:42;;;;;;;19.90;10.75;;;8.90;99.90;;;;;;5079129;28;20068;-60
2022/12/22 12:20:23;;;;;;;21.25;10.38;;;8.90;99.90;;;;;;5078548;28;20499;-59
2022/12/22 12:22:59;;;;;;;17.90;9.68;;;8.90;99.90;;;;;;5072837;28;20044;-62
2022/12/22 12:25:38;;;;;;;20.38;10.10;;;9.00;99.90;;;;;;5073843;28;20056;-60
2022/12/22 12:28:28;;;;;;;20.08;9.60;;;9.00;99.90;;;;;;5072884;28;20075;-60
2022/12/22 12:30:59;;;;;;;18.95;9.57;;;8.90;99.90;;;;;;5072627;28;20036;-61
2022/12/22 12:33:46;;;;;;;18.17;9.70;;;9.00;99.90;;;;;;5056123;28;20041;-60
2022/12/22 12:36:23;;;;;;;14.93;8.90;;;9.00;99.90;;;;;;5074059;28;20044;-60
2022/12/22 12:39:01;;;;;;;15.15;8.02;;;9.00;99.90;;;;;;5073689;28;20033;-60
2022/12/22 12:41:57;;;;;;;18.48;9.50;;;9.00;99.90;;;;;;5072632;28;20091;-60
2022/12/22 12:44:30;;;;;;;16.40;8.90;;;9.00;99.90;;;;;;5060256;28;20350;-59
2022/12/22 12:47:22;;;;;;;15.32;8.18;;;9.00;99.90;;;;;;5073288;28;20492;-60
2022/12/22 12:49:56;;;;;;;15.85;7.97;;;8.90;99.90;;;;;;5077791;28;20037;-58
2022/12/22 12:52:42;;;;;;;;;;;9.00;99.90;;;;;;5083689;28;20044;-64
2022/12/22 12:55:37;;;;;;;15.45;8.45;;;9.10;99.90;;;;;;5081478;28;19955;-60
2022/12/22 12:58:08;;;;;;;15.63;8.15;;;9.00;99.90;;;;;;5018151;28;20056;-62
2022/12/22 13:00:34;;;;;;;12.07;7.22;;;9.10;99.90;;;;;;5073885;28;20513;-60
2022/12/22 13:03:10;;;;;;;17.17;8.75;;;9.00;99.90;;;;;;5056085;28;20044;-60
2022/12/22 13:05:54;;;;;;;15.80;7.95;;;9.00;99.90;;;;;;5085054;28;20028;-60
2022/12/22 13:08:25;;;;;;;18.10;8.18;;;9.10;99.90;;;;;;5075902;28;20108;-60
2022/12/22 13:10:54;;;;;;;17.23;7.75;;;9.00;99.90;;;;;;5080398;28;20127;-63
2022/12/22 13:13:25;;;;;;;14.60;8.23;;;9.10;99.90;;;;;;5072110;28;20040;-62
2022/12/22 13:16:00;;;;;;;15.70;8.30;;;9.10;99.90;;;;;;5086405;28;20079;-61
2022/12/22 13:18:27;;;;;;;19.48;8.93;;;9.20;99.90;;;;;;5073590;28;20049;-60
2022/12/22 13:21:04;;;;;;;19.42;8.95;;;9.00;99.90;;;;;;5054424;28;20533;-62
2022/12/22 13:23:40;;;;;;;17.10;7.93;;;9.10;99.90;;;;;;5071938;28;20040;-60
2022/12/22 13:26:14;;;;;;;13.27;7.47;;;9.00;99.90;;;;;;5072200;28;20037;-59
2022/12/22 13:28:42;;;;;;;;;;;9.10;99.90;;;;;;5072852;28;20488;-59
2022/12/22 13:31:32;;;;;;;13.32;7.45;;;9.00;99.90;;;;;;5054834;28;19920;-61
2022/12/22 13:34:04;;;;;;;13.38;7.03;;;9.10;99.90;;;;;;5073736;28;20049;-62
2022/12/22 13:36:30;;;;;;;14.02;7.18;;;9.10;99.90;;;;;;5072363;28;20118;-59
2022/12/22 13:39:12;;;;;;;10.82;6.88;;;9.00;99.90;;;;;;5072078;28;20457;-60
2022/12/22 13:41:40;;;;;;;14.10;7.57;;;9.10;99.90;;;;;;5072224;28;20123;-60
2022/12/22 13:44:09;;;;;;;12.18;6.68;;;9.10;99.90;;;;;;5071383;28;20090;-60
2022/12/22 13:46:36;;;;;;;14.73;6.75;;;9.00;99.90;;;;;;5074979;28;20079;-59
2022/12/22 13:49:03;;;;;;;11.27;6.20;;;9.00;99.90;;;;;;5078680;28;20072;-60
2022/12/22 13:51:35;;;;;;;14.38;6.60;;;9.10;99.90;;;;;;5079615;28;20052;-63
2022/12/22 13:54:24;;;;;;;10.68;6.03;;;9.10;99.90;;;;;;5071573;28;20059;-59
2022/12/22 13:56:55;;;;;;;11.43;5.85;;;9.00;99.90;;;;;;5060936;28;20048;-60
2022/12/22 13:59:31;;;;;;;11.88;5.93;;;9.10;99.90;;;;;;5072336;28;20058;-62
2022/12/22 14:02:18;;;;;;;12.05;5.63;;;9.00;99.90;;;;;;5081726;28;20037;-63
2022/12/22 14:05:06;;;;;;;12.27;5.75;;;9.00;99.90;;;;;;5075177;28;20503;-62
2022/12/22 14:07:32;;;;;;;12.77;5.55;;;9.00;99.90;;;;;;5076008;28;20079;-59
2022/12/22 14:09:58;;;;;;;12.52;5.60;;;8.90;99.90;;;;;;5076175;28;20064;-59
2022/12/22 14:12:56;;;;;;;13.95;5.30;;;9.00;99.90;;;;;;5075404;28;20040;-62
2022/12/22 14:15:28;;;;;;;11.15;4.82;;;9.10;99.90;;;;;;5031920;28;20091;-63
2022/12/22 14:17:54;;;;;;;8.38;4.40;;;9.00;99.90;;;;;;5073153;28;20047;-60
2022/12/22 14:20:39;;;;;;;11.15;4.68;;;9.00;99.90;;;;;;5057678;28;20064;-62
2022/12/22 14:23:11;;;;;;;6.97;4.43;;;9.00;99.90;;;;;;5074937;28;20329;-63
2022/12/22 14:25:41;;;;;;;7.05;4.35;;;9.00;99.90;;;;;;5075626;28;20131;-60
2022/12/22 14:28:49;;;;;;;9.50;4.75;;;8.90;99.90;;;;;;5074998;28;20068;-60
2022/12/22 14:31:16;;;;;;;12.70;4.60;;;8.90;99.90;;;;;;5061357;28;20048;-60
2022/12/22 14:34:04;;;;;;;8.23;4.82;;;9.00;99.90;;;;;;5075231;28;20109;-60
2022/12/22 14:36:44;;;;;;;10.27;4.75;;;9.00;99.90;;;;;;5064816;28;20048;-60
2022/12/22 14:39:20;;;;;;;12.98;4.75;;;8.90;99.90;;;;;;5075662;28;20051;-61
2022/12/22 14:41:56;;;;;;;14.18;4.47;;;9.00;99.90;;;;;;5075300;28;20059;-62
2022/12/22 14:44:43;;;;;;;14.63;4.50;;;8.90;99.90;;;;;;5075196;28;20453;-63
2022/12/22 14:47:16;;;;;;;12.25;5.65;;;9.00;99.90;;;;;;5072102;28;20196;-61
2022/12/22 14:49:50;;;;;;;10.50;4.82;;;8.90;99.90;;;;;;5075563;28;20055;-60
2022/12/22 14:52:41;;;;;;;10.50;4.80;;;8.90;99.90;;;;;;5075104;28;20036;-60
2022/12/22 14:55:33;;;;;;;11.95;5.53;;;8.80;99.90;;;;;;5074296;28;20059;-61
2022/12/22 14:58:08;;;;;;;10.32;4.90;;;8.70;99.90;;;;;;5075370;28;20049;-60
2022/12/22 15:00:48;;;;;;;11.55;4.70;;;8.70;99.90;;;;;;5061998;28;20097;-60
2022/12/22 15:03:35;;;;;;;12.20;5.32;;;8.70;99.90;;;;;;5057039;28;20059;-59
2022/12/22 15:06:21;;;;;;;12.57;6.13;;;8.70;99.90;;;;;;5075036;28;20047;-62
2022/12/22 15:08:47;;;;;;;11.70;6.32;;;8.60;99.90;;;;;;5063787;28;20040;-63
2022/12/22 15:11:16;;;;;;;11.15;6.15;;;8.60;99.90;;;;;;5075793;28;20539;-63
2022/12/22 15:13:45;;;;;;;11.20;6.65;;;8.60;99.90;;;;;;5074515;28;20044;-61
2022/12/22 15:16:16;;;;;;;12.60;6.95;;;8.60;99.90;;;;;;5072109;28;20424;-60
2022/12/22 15:18:42;;;;;;;12.70;7.47;;;8.50;99.90;;;;;;5075105;28;20036;-60
2022/12/22 15:21:11;;;;;;;12.38;7.10;;;8.50;99.90;;;;;;5074711;28;20047;-62
2022/12/22 15:23:36;;;;;;;10.15;7.00;;;8.50;99.90;;;;;;5080835;28;20044;-61
2022/12/22 15:26:02;;;;;;;13.07;8.40;;;8.50;99.90;;;;;;5077287;28;20040;-61
2022/12/22 15:28:27;;;;;;;14.23;8.20;;;8.50;99.90;;;;;;5085594;28;20040;-62
2022/12/22 15:30:53;;;;;;;11.10;8.23;;;8.50;99.90;;;;;;5077748;28;20066;-62
2022/12/22 15:33:27;;;;;;;13.13;9.00;;;8.40;99.90;;;;;;5083063;28;20372;-62
2022/12/22 15:35:52;;;;;;;13.85;9.32;;;8.40;99.90;;;;;;5044911;28;20045;-64
2022/12/22 15:38:20;;;;;;;12.80;10.05;;;8.30;99.90;;;;;;5074369;28;20173;-62
2022/12/22 15:40:46;;;;;;;17.58;10.65;;;8.20;99.90;;;;;;5091103;28;20048;-59
2022/12/22 15:43:13;;;;;;;14.18;10.90;;;8.20;99.90;;;;;;5083280;28;20097;-61
2022/12/22 15:45:39;;;;;;;13.38;10.80;;;8.10;99.90;;;;;;5073957;28;20032;-63
2022/12/22 15:48:10;;;;;;;19.83;13.60;;;8.20;99.90;;;;;;5085088;28;20493;-61
2022/12/22 15:50:40;;;;;;;19.40;13.63;;;8.10;99.90;;;;;;5075310;28;20357;-59
2022/12/22 15:53:10;;;;;;;19.30;15.32;;;7.90;99.90;;;;;;5078462;28;20063;-61
2022/12/22 15:55:52;;;;;;;19.67;15.18;;;7.90;99.90;;;;;;5073761;28;20047;-59
2022/12/22 15:58:22;;;;;;;20.40;15.02;;;7.90;99.90;;;;;;5077107;28;20474;-63
2022/12/22 16:00:47;;;;;;;22.55;16.45;;;7.80;99.90;;;;;;5073402;28;20453;-62
2022/12/22 16:03:14;;;;;;;20.85;15.95;;;7.80;99.90;;;;;;5072576;28;20041;-62
2022/12/22 16:05:40;;;;;;;20.65;15.30;;;7.70;99.90;;;;;;5073240;28;20375;-62
2022/12/22 16:08:13;;;;;;;23.50;17.33;;;7.80;99.90;;;;;;5073249;28;20036;-60
2022/12/22 16:10:39;;;;;;;19.90;15.80;;;7.80;99.90;;;;;;5055072;28;20068;-62
2022/12/22 16:13:04;;;;;;;24.48;17.00;;;7.70;99.90;;;;;;5072455;28;20125;-60
2022/12/22 16:15:33;;;;;;;23.30;16.08;;;7.80;99.90;;;;;;5073065;28;20372;-61
2022/12/22 16:18:01;;;;;;;24.85;17.60;;;7.80;99.90;;;;;;5073653;28;20477;-62
2022/12/22 16:20:30;;;;;;;22.77;16.15;;;7.70;99.90;;;;;;5070918;28;20059;-61
2022/12/22 16:22:57;;;;;;;23.27;16.52;;;7.70;99.90;;;;;;5082595;28;20048;-61
2022/12/22 16:25:32;;;;;;;23.48;17.23;;;7.70;99.90;;;;;;5072007;28;20048;-61
2022/12/22 16:28:01;;;;;;;21.92;16.30;;;7.70;99.90;;;;;;5080870;28;20044;-60
2022/12/22 16:30:29;;;;;;;27.65;20.30;;;7.70;99.90;;;;;;5073095;28;20037;-60
2022/12/22 16:32:55;;;;;;;26.58;20.48;;;7.70;99.90;;;;;;5075341;28;20460;-61
2022/12/22 16:35:23;;;;;;;28.70;22.65;;;7.60;99.90;;;;;;5090559;28;20035;-62
2022/12/22 16:37:49;;;;;;;27.58;22.35;;;7.60;99.90;;;;;;5073590;28;20048;-63
2022/12/22 16:40:17;;;;;;;28.30;20.73;;;7.50;99.90;;;;;;5085894;28;20448;-61
2022/12/22 16:42:50;;;;;;;24.10;20.35;;;7.70;99.90;;;;;;5074167;28;20151;-63